createdAt,value
2023-11-24T00:02:25.959Z,97974.41
2023-11-24T00:04:56.540Z,97969.41
2023-11-24T00:07:27.044Z,97978.56
2023-11-24T00:09:58.468Z,97962.69
2023-11-24T00:12:33.294Z,97965.81
2023-11-24T00:15:05.552Z,97954.13
2023-11-24T00:17:37.504Z,97950.56
2023-11-24T00:20:09.556Z,97944.47
2023-11-24T00:22:40.116Z,97932.94
2023-11-24T00:25:11.303Z,97933.06
2023-11-24T00:27:44.777Z,97929.13
2023-11-24T00:30:16.102Z,97932.00
2023-11-24T00:32:47.623Z,97932.50
2023-11-24T00:35:18.331Z,97923.16
2023-11-24T00:37:49.619Z,97907.72
2023-11-24T00:40:20.395Z,97896.69
2023-11-24T00:42:53.733Z,97901.69
2023-11-24T00:45:25.000Z,97890.25
2023-11-24T00:47:55.650Z,97871.00
2023-11-24T00:50:26.298Z,97866.03
2023-11-24T00:52:56.856Z,97839.78
2023-11-24T00:55:27.807Z,97835.44
2023-11-24T00:58:01.294Z,97829.31
2023-11-24T01:00:32.040Z,97816.19
2023-11-24T01:03:02.644Z,97814.44
2023-11-24T01:05:34.491Z,97822.47
2023-11-24T01:08:05.649Z,97815.31
2023-11-24T01:10:36.240Z,97811.56
2023-11-24T01:13:09.389Z,97807.75
2023-11-24T01:15:37.429Z,97798.63
2023-11-24T01:18:08.528Z,97812.19
2023-11-24T01:20:39.300Z,97814.09
2023-11-24T01:23:10.010Z,97819.78
2023-11-24T01:25:40.898Z,97804.50
2023-11-24T01:28:15.029Z,97802.94
2023-11-24T01:30:45.860Z,97815.63
2023-11-24T01:33:16.544Z,97822.66
2023-11-24T01:35:47.299Z,97825.22
2023-11-24T01:38:17.898Z,97831.41
2023-11-24T01:40:48.576Z,97845.00
2023-11-24T01:43:21.804Z,97840.13
2023-11-24T01:45:52.666Z,97837.47
2023-11-24T01:48:23.618Z,97847.16
2023-11-24T01:50:54.557Z,97853.72
2023-11-24T01:53:25.482Z,97850.03
2023-11-24T01:55:56.436Z,97840.22
2023-11-24T01:58:31.752Z,97826.75
2023-11-24T02:01:02.913Z,97809.84
2023-11-24T02:03:33.797Z,97808.25
2023-11-24T02:06:04.660Z,97807.47
2023-11-24T02:08:35.671Z,97805.50
2023-11-24T02:11:06.776Z,97793.91
2023-11-24T02:13:39.948Z,97809.56
2023-11-24T02:16:12.275Z,97798.47
2023-11-24T02:18:43.112Z,97795.38
2023-11-24T02:21:14.127Z,97789.81
2023-11-24T02:23:48.185Z,97783.78
2023-11-24T02:26:18.817Z,97779.69
2023-11-24T02:28:49.604Z,97783.13
2023-11-24T02:31:20.379Z,97779.41
2023-11-24T02:33:52.815Z,97779.59
2023-11-24T02:36:29.079Z,97778.78
2023-11-24T02:39:04.567Z,97774.06
2023-11-24T02:41:36.145Z,97773.81
2023-11-24T02:44:07.002Z,97786.28
2023-11-24T02:46:37.582Z,97770.34
2023-11-24T02:49:08.380Z,97763.94
2023-11-24T02:51:39.307Z,97766.03
2023-11-24T02:54:12.584Z,97761.25
2023-11-24T02:56:43.981Z,97751.25
2023-11-24T02:59:14.844Z,97744.63
2023-11-24T03:01:45.625Z,97750.13
2023-11-24T03:04:16.308Z,97754.41
2023-11-24T03:06:47.977Z,97746.41
2023-11-24T03:09:24.323Z,97755.97
2023-11-24T03:11:56.131Z,97747.88
2023-11-24T03:14:27.205Z,97751.41
2023-11-24T03:16:57.859Z,97745.28
2023-11-24T03:19:28.582Z,97744.03
2023-11-24T03:21:59.169Z,97735.16
2023-11-24T03:24:32.440Z,97728.63
2023-11-24T03:27:03.297Z,97729.75
2023-11-24T03:29:34.865Z,97734.03
2023-11-24T03:32:06.183Z,97700.66
2023-11-24T03:34:37.571Z,97700.41
2023-11-24T03:37:08.430Z,97697.13
2023-11-24T03:39:41.608Z,97686.41
2023-11-24T03:42:12.211Z,97683.88
2023-11-24T03:44:42.765Z,97668.63
2023-11-24T03:47:13.860Z,97641.13
2023-11-24T03:49:44.494Z,97640.16
2023-11-24T03:52:16.521Z,97655.00
2023-11-24T03:54:51.572Z,97648.03
2023-11-24T03:57:22.716Z,97655.63
2023-11-24T03:59:53.234Z,97659.41
2023-11-24T04:02:24.269Z,97666.81
2023-11-24T04:04:55.362Z,97671.88
2023-11-24T04:07:26.456Z,97661.59
2023-11-24T04:09:59.743Z,97666.66
2023-11-24T04:12:30.412Z,97667.09
2023-11-24T04:15:01.013Z,97662.31
2023-11-24T04:17:31.729Z,97657.34
2023-11-24T04:20:02.258Z,97657.34
2023-11-24T04:22:33.009Z,97657.41
2023-11-24T04:25:06.498Z,97657.59
2023-11-24T04:27:37.348Z,97642.94
2023-11-24T04:30:09.254Z,97628.28
2023-11-24T04:32:39.879Z,97638.69
2023-11-24T04:35:11.984Z,97639.16
2023-11-24T04:37:42.572Z,97628.50
2023-11-24T04:40:16.045Z,97620.00
2023-11-24T04:42:47.132Z,97627.66
2023-11-24T04:45:18.136Z,97618.94
2023-11-24T04:47:49.100Z,97627.94
2023-11-24T04:50:19.824Z,97616.97
2023-11-24T04:52:50.482Z,97610.56
2023-11-24T04:55:23.861Z,97591.03
2023-11-24T04:57:54.452Z,97588.41
2023-11-24T05:00:25.200Z,97593.03
2023-11-24T05:02:55.774Z,97616.25
2023-11-24T05:05:27.000Z,97694.78
2023-11-24T05:07:57.609Z,97702.81
2023-11-24T05:10:30.856Z,97693.22
2023-11-24T05:13:01.598Z,97694.53
2023-11-24T05:15:33.161Z,97709.13
2023-11-24T05:18:05.566Z,97708.19
2023-11-24T05:20:36.193Z,97696.84
2023-11-24T05:23:06.835Z,97683.59
2023-11-24T05:25:40.179Z,97686.28
2023-11-24T05:28:10.956Z,97682.50
2023-11-24T05:30:41.924Z,97675.88
2023-11-24T05:33:13.715Z,97681.72
2023-11-24T05:35:44.483Z,97671.28
2023-11-24T05:38:15.277Z,97675.06
2023-11-24T05:40:48.631Z,97671.25
2023-11-24T05:43:19.295Z,97673.50
2023-11-24T05:45:50.127Z,97664.69
2023-11-24T05:48:20.738Z,97671.03
2023-11-24T05:50:51.406Z,97664.69
2023-11-24T05:53:21.998Z,97657.41
2023-11-24T05:55:57.388Z,97665.84
2023-11-24T05:58:28.024Z,97653.84
2023-11-24T06:00:59.417Z,97660.97
2023-11-24T06:03:30.708Z,97660.19
2023-11-24T06:06:01.557Z,97664.44
2023-11-24T06:08:32.291Z,97651.53
2023-11-24T06:11:05.789Z,97653.72
2023-11-24T06:13:36.359Z,97654.00
2023-11-24T06:16:07.164Z,97651.47
2023-11-24T06:18:37.893Z,97645.81
2023-11-24T06:21:13.272Z,97644.06
2023-11-24T06:23:46.871Z,97644.25
2023-11-24T06:26:20.131Z,97631.00
2023-11-24T06:28:50.777Z,97634.13
2023-11-24T06:31:21.483Z,97628.63
2023-11-24T06:33:52.218Z,97634.47
2023-11-24T06:36:23.453Z,97616.75
2023-11-24T06:38:54.047Z,97604.19
2023-11-24T06:41:27.646Z,97609.81
2023-11-24T06:43:58.473Z,97609.03
2023-11-24T06:46:29.084Z,97609.19
2023-11-24T06:49:01.116Z,97606.16
2023-11-24T06:51:31.778Z,97606.88
2023-11-24T06:54:02.750Z,97601.06
2023-11-24T06:56:35.939Z,97608.44
2023-11-24T06:59:06.962Z,97601.19
2023-11-24T07:01:38.133Z,97596.91
2023-11-24T07:04:09.603Z,97589.16
2023-11-24T07:06:40.688Z,97579.53
2023-11-24T07:09:13.144Z,97569.84
2023-11-24T07:11:48.811Z,97594.44
2023-11-24T07:14:19.658Z,97588.09
2023-11-24T07:16:50.237Z,97590.97
2023-11-24T07:19:23.233Z,97582.78
2023-11-24T07:21:53.981Z,97580.84
2023-11-24T07:24:24.941Z,97590.97
2023-11-24T07:27:00.930Z,97586.53
2023-11-24T07:29:33.076Z,97577.03
2023-11-24T07:32:04.535Z,97583.03
2023-11-24T07:34:35.482Z,97585.06
2023-11-24T07:37:07.984Z,97589.69
2023-11-24T07:39:38.697Z,97583.94
2023-11-24T07:42:11.932Z,97582.09
2023-11-24T07:44:43.610Z,97598.16
2023-11-24T07:47:16.186Z,97585.69
2023-11-24T07:49:46.792Z,97591.81
2023-11-24T07:52:17.462Z,97577.53
2023-11-24T07:54:48.112Z,97572.53
2023-11-24T07:57:22.071Z,97566.69
2023-11-24T07:59:52.816Z,97568.75
2023-11-24T08:02:23.486Z,97550.47
2023-11-24T08:04:54.234Z,97551.25
2023-11-24T08:07:25.260Z,97545.84
2023-11-24T08:10:00.522Z,97536.88
2023-11-24T08:12:33.752Z,97530.81
2023-11-24T08:15:04.458Z,97524.53
2023-11-24T08:17:35.040Z,97528.28
2023-11-24T08:20:06.750Z,97530.69
2023-11-24T08:22:37.314Z,97529.13
2023-11-24T08:25:10.329Z,97519.78
2023-11-24T08:27:45.800Z,97519.19
2023-11-24T08:30:18.171Z,97507.19
2023-11-24T08:32:50.173Z,97507.59
2023-11-24T08:35:21.457Z,97501.81
2023-11-24T08:37:52.280Z,97512.41
2023-11-24T08:40:25.540Z,97512.41
2023-11-24T08:43:00.522Z,97512.47
2023-11-24T08:45:31.108Z,97522.03
2023-11-24T08:48:01.908Z,97513.72
2023-11-24T08:50:32.444Z,97503.94
2023-11-24T08:53:05.721Z,97501.13
2023-11-24T08:55:36.341Z,97498.84
2023-11-24T08:58:09.504Z,97493.06
2023-11-24T09:00:40.188Z,97491.47
2023-11-24T09:03:10.854Z,97488.66
2023-11-24T09:05:42.838Z,97485.06
2023-11-24T09:08:13.345Z,97485.06
2023-11-24T09:10:44.196Z,97480.88
2023-11-24T09:13:17.515Z,97485.13
2023-11-24T09:15:48.274Z,97483.13
2023-11-24T09:18:18.931Z,97483.22
2023-11-24T09:20:50.123Z,97478.94
2023-11-24T09:23:21.510Z,97483.66
2023-11-24T09:25:52.865Z,97479.59
2023-11-24T09:28:26.231Z,97491.00
2023-11-24T09:30:56.951Z,97498.09
2023-11-24T09:33:27.892Z,97479.09
2023-11-24T09:35:58.486Z,97472.94
2023-11-24T09:38:29.307Z,97472.34
2023-11-24T09:41:04.780Z,97476.03
2023-11-24T09:43:39.407Z,97462.56
2023-11-24T09:46:10.743Z,97465.41
2023-11-24T09:48:46.311Z,97463.31
2023-11-24T09:51:18.490Z,97450.69
2023-11-24T09:53:49.287Z,97447.50
2023-11-24T09:56:19.979Z,97442.91
2023-11-24T09:58:53.298Z,97446.50
2023-11-24T10:01:24.903Z,97428.63
2023-11-24T10:03:57.086Z,97416.94
2023-11-24T10:06:28.833Z,97415.81
2023-11-24T10:09:00.597Z,97406.59
2023-11-24T10:11:34.644Z,97396.94
2023-11-24T10:14:08.548Z,97402.63
2023-11-24T10:16:42.644Z,97401.06
2023-11-24T10:19:21.945Z,97395.78
2023-11-24T10:21:56.121Z,97394.06
2023-11-24T10:24:29.309Z,97379.59
2023-11-24T10:26:59.853Z,97368.34
2023-11-24T10:29:35.515Z,97366.13
2023-11-24T10:32:07.731Z,97361.06
2023-11-24T10:34:38.367Z,97351.56
2023-11-24T10:37:09.876Z,97346.44
2023-11-24T10:39:42.177Z,97361.28
2023-11-24T10:42:16.774Z,97360.06
2023-11-24T10:44:58.301Z,97360.19
2023-11-24T10:47:33.910Z,97350.22
2023-11-24T10:50:11.168Z,97349.50
2023-11-24T10:52:52.399Z,97345.63
2023-11-24T10:55:23.318Z,97342.28
2023-11-24T10:57:54.803Z,97328.81
2023-11-24T11:00:28.761Z,97333.69
2023-11-24T11:03:00.779Z,97314.69
2023-11-24T11:05:45.808Z,97320.72
2023-11-24T11:08:21.918Z,97320.16
2023-11-24T11:11:13.836Z,97291.22
2023-11-24T11:13:46.989Z,97288.91
2023-11-24T11:16:22.017Z,97274.88
2023-11-24T11:18:52.712Z,97274.88
2023-11-24T11:21:41.917Z,97272.91
2023-11-24T11:24:30.029Z,97267.25
2023-11-24T11:27:01.201Z,97258.50
2023-11-24T11:29:33.645Z,97269.97
2023-11-24T11:32:15.256Z,97260.06
2023-11-24T11:34:45.888Z,97247.13
2023-11-24T11:37:16.800Z,97256.34
2023-11-24T11:39:55.333Z,97254.56
2023-11-24T11:42:33.839Z,97240.09
2023-11-24T11:45:11.431Z,97236.22
2023-11-24T11:47:57.853Z,97229.56
2023-11-24T11:50:28.485Z,97227.16
2023-11-24T11:53:02.137Z,97220.28
2023-11-24T11:55:33.070Z,97216.00
2023-11-24T11:58:05.587Z,97203.28
2023-11-24T12:00:36.329Z,97216.75
2023-11-24T12:03:09.566Z,97210.31
2023-11-24T12:05:42.324Z,97211.66
2023-11-24T12:08:13.157Z,97200.97
2023-11-24T12:10:46.986Z,97209.34
2023-11-24T12:13:17.731Z,97201.22
2023-11-24T12:15:49.298Z,97207.63
2023-11-24T12:18:23.206Z,97193.13
2023-11-24T12:20:54.858Z,97194.63
2023-11-24T12:23:27.397Z,97191.38
2023-11-24T12:25:58.300Z,97179.97
2023-11-24T12:28:29.041Z,97175.69
2023-11-24T12:30:59.906Z,97181.91
2023-11-24T12:33:34.783Z,97193.00
2023-11-24T12:36:06.349Z,97173.88
2023-11-24T12:38:37.739Z,97194.94
2023-11-24T12:41:09.158Z,97210.16
2023-11-24T12:43:40.147Z,97213.72
2023-11-24T12:46:21.576Z,97197.06
2023-11-24T12:49:05.847Z,97210.97
2023-11-24T12:51:37.254Z,97196.16
2023-11-24T12:54:09.958Z,97184.41
2023-11-24T12:56:40.618Z,97206.50
2023-11-24T12:59:12.262Z,97190.56
2023-11-24T13:01:42.916Z,97197.19
2023-11-24T13:04:16.396Z,97202.75
2023-11-24T13:06:48.674Z,97192.81
2023-11-24T13:09:20.003Z,97177.34
2023-11-24T13:11:50.937Z,97167.09
2023-11-24T13:14:23.844Z,97187.78
2023-11-24T13:16:54.557Z,97190.38
2023-11-24T13:19:28.156Z,97207.41
2023-11-24T13:21:58.724Z,97209.47
2023-11-24T13:24:30.259Z,97210.88
2023-11-24T13:27:01.216Z,97212.06
2023-11-24T13:29:31.771Z,97224.78
2023-11-24T13:32:02.819Z,97214.28
2023-11-24T13:34:36.148Z,97211.34
2023-11-24T13:37:08.321Z,97178.63
2023-11-24T13:39:39.202Z,97172.34
2023-11-24T13:42:10.364Z,97164.56
2023-11-24T13:44:41.644Z,97150.50
2023-11-24T13:47:14.531Z,97139.09
2023-11-24T13:49:50.437Z,97144.72
2023-11-24T13:52:21.210Z,97147.88
2023-11-24T13:54:52.321Z,97144.69
2023-11-24T13:57:23.786Z,97119.16
2023-11-24T13:59:54.278Z,97127.97
2023-11-24T14:02:26.829Z,97124.66
2023-11-24T14:05:00.041Z,97114.41
2023-11-24T14:07:30.842Z,97115.31
2023-11-24T14:10:01.497Z,97115.75
2023-11-24T14:12:32.120Z,97122.75
2023-11-24T14:15:05.412Z,97119.31
2023-11-24T14:17:37.544Z,97123.34
2023-11-24T14:20:12.533Z,97123.34
2023-11-24T14:22:43.322Z,97126.13
2023-11-24T14:25:14.303Z,97130.47
2023-11-24T14:27:44.970Z,97124.38
2023-11-24T14:30:16.364Z,97124.94
2023-11-24T14:32:46.973Z,97111.06
2023-11-24T14:35:22.106Z,97117.22
2023-11-24T14:37:54.002Z,97111.91
2023-11-24T14:40:24.834Z,97106.09
2023-11-24T14:42:55.634Z,97095.22
2023-11-24T14:45:26.797Z,97097.16
2023-11-24T14:47:57.603Z,97096.75
2023-11-24T14:50:33.080Z,97098.50
2023-11-24T14:53:04.990Z,97104.28
2023-11-24T14:55:36.325Z,97111.09
2023-11-24T14:58:07.625Z,97109.16
2023-11-24T15:00:39.600Z,97129.94
2023-11-24T15:03:16.033Z,97137.34
2023-11-24T15:05:55.877Z,97144.63
2023-11-24T15:08:28.348Z,97148.03
2023-11-24T15:11:05.211Z,97197.81
2023-11-24T15:13:37.442Z,97205.91
2023-11-24T15:16:13.552Z,97209.13
2023-11-24T15:18:46.897Z,97196.47
2023-11-24T15:21:29.901Z,97197.50
2023-11-24T15:24:01.068Z,97191.53
2023-11-24T15:26:33.815Z,97180.00
2023-11-24T15:29:06.599Z,97181.50
2023-11-24T15:31:39.921Z,97181.03
2023-11-24T15:34:10.630Z,97168.59
2023-11-24T15:36:44.137Z,97169.69
2023-11-24T15:39:30.488Z,97164.19
2023-11-24T15:42:01.707Z,97177.63
2023-11-24T15:44:34.265Z,97171.66
2023-11-24T15:47:09.097Z,97176.50
2023-11-24T15:49:43.042Z,97159.19
2023-11-24T15:52:16.931Z,97169.91
2023-11-24T15:54:47.590Z,97168.97
2023-11-24T15:57:18.295Z,97177.19
2023-11-24T15:59:48.900Z,97191.19
2023-11-24T16:02:25.165Z,97190.75
2023-11-24T16:04:58.243Z,97192.81
2023-11-24T16:07:34.435Z,97197.66
2023-11-24T16:10:16.808Z,97203.34
2023-11-24T16:12:49.973Z,97211.19
2023-11-24T16:15:20.694Z,97210.22
2023-11-24T16:17:52.505Z,97222.50
2023-11-24T16:20:23.585Z,97225.31
2023-11-24T16:22:56.706Z,97225.94
2023-11-24T16:25:27.878Z,97224.38
2023-11-24T16:27:58.580Z,97221.22
2023-11-24T16:30:29.964Z,97220.00
2023-11-24T16:33:00.780Z,97224.06
2023-11-24T16:35:31.308Z,97221.72
2023-11-24T16:38:04.828Z,97222.50
2023-11-24T16:40:36.443Z,97219.69
2023-11-24T16:43:07.119Z,97225.94
2023-11-24T16:45:39.468Z,97232.53
2023-11-24T16:48:10.396Z,97226.41
2023-11-24T16:50:41.286Z,97239.13
2023-11-24T16:53:16.768Z,97237.88
2023-11-24T16:55:48.558Z,97240.97
2023-11-24T16:58:20.062Z,97243.19
2023-11-24T17:00:50.770Z,97250.53
2023-11-24T17:03:21.498Z,97247.56
2023-11-24T17:05:52.175Z,97256.50
2023-11-24T17:08:25.483Z,97260.22
2023-11-24T17:10:56.017Z,97262.88
2023-11-24T17:13:26.654Z,97270.06
2023-11-24T17:15:57.225Z,97283.41
2023-11-24T17:18:28.386Z,97287.50
2023-11-24T17:20:59.164Z,97292.69
2023-11-24T17:23:33.788Z,97295.72
2023-11-24T17:26:04.443Z,97295.94
2023-11-24T17:28:36.176Z,97291.38
2023-11-24T17:31:09.547Z,97297.13
2023-11-24T17:33:41.514Z,97290.97
2023-11-24T17:36:13.206Z,97294.78
2023-11-24T17:38:46.364Z,97289.25
2023-11-24T17:41:17.228Z,97290.72
2023-11-24T17:43:47.916Z,97295.50
2023-11-24T17:46:18.687Z,97297.16
2023-11-24T17:48:49.686Z,97286.84
2023-11-24T17:51:20.612Z,97286.84
2023-11-24T17:53:53.918Z,97285.94
2023-11-24T17:56:24.518Z,97282.22
2023-11-24T17:58:56.499Z,97281.91
2023-11-24T18:01:27.390Z,97278.44
2023-11-24T18:03:58.098Z,97283.31
2023-11-24T18:06:29.621Z,97287.84
2023-11-24T18:09:03.198Z,97277.81
2023-11-24T18:11:34.474Z,97279.69
2023-11-24T18:14:07.194Z,97279.03
2023-11-24T18:16:37.814Z,97284.72
2023-11-24T18:19:08.497Z,97278.06
2023-11-24T18:21:39.062Z,97277.75
2023-11-24T18:24:12.747Z,97265.50
2023-11-24T18:26:43.360Z,97268.94
2023-11-24T18:29:15.239Z,97268.31
2023-11-24T18:31:46.336Z,97278.84
2023-11-24T18:34:17.157Z,97270.69
2023-11-24T18:36:47.950Z,97266.91
2023-11-24T18:39:21.127Z,97264.28
2023-11-24T18:41:51.693Z,97260.78
2023-11-24T18:44:22.310Z,97253.56
2023-11-24T18:46:52.850Z,97254.66
2023-11-24T18:49:24.684Z,97246.00
2023-11-24T18:51:55.311Z,97243.19
2023-11-24T18:54:30.025Z,97255.88
2023-11-24T18:57:00.629Z,97267.19
2023-11-24T18:59:32.178Z,97261.06
2023-11-24T19:02:02.774Z,97270.81
2023-11-24T19:04:33.445Z,97273.34
2023-11-24T19:07:04.649Z,97262.66
2023-11-24T19:09:37.943Z,97267.69
2023-11-24T19:12:09.681Z,97266.13
2023-11-24T19:14:40.255Z,97259.22
2023-11-24T19:17:11.137Z,97244.16
2023-11-24T19:19:41.739Z,97262.22
2023-11-24T19:22:12.339Z,97256.75
2023-11-24T19:24:45.685Z,97254.84
2023-11-24T19:27:16.398Z,97254.66
2023-11-24T19:29:46.941Z,97256.06
2023-11-24T19:32:17.582Z,97253.53
2023-11-24T19:34:48.175Z,97256.03
2023-11-24T19:37:18.740Z,97262.97
2023-11-24T19:39:51.895Z,97258.53
2023-11-24T19:42:22.901Z,97254.09
2023-11-24T19:44:53.488Z,97255.19
2023-11-24T19:47:25.937Z,97260.69
2023-11-24T19:49:57.721Z,97269.44
2023-11-24T19:52:28.293Z,97264.75
2023-11-24T19:55:01.596Z,97267.94
2023-11-24T19:57:33.649Z,97268.88
2023-11-24T20:00:09.388Z,97266.13
2023-11-24T20:02:40.174Z,97252.81
2023-11-24T20:05:11.751Z,97249.84
2023-11-24T20:07:42.296Z,97254.88
2023-11-24T20:10:16.065Z,97244.50
2023-11-24T20:12:46.697Z,97250.31
2023-11-24T20:15:17.387Z,97246.72
2023-11-24T20:17:48.571Z,97252.00
2023-11-24T20:20:19.509Z,97254.06
2023-11-24T20:22:50.165Z,97256.13
2023-11-24T20:25:23.435Z,97249.53
2023-11-24T20:27:54.182Z,97252.97
2023-11-24T20:30:24.858Z,97244.78
2023-11-24T20:32:57.279Z,97246.38
2023-11-24T20:35:28.353Z,97234.75
2023-11-24T20:37:59.015Z,97241.69
2023-11-24T20:40:32.341Z,97235.06
2023-11-24T20:43:05.634Z,97217.47
2023-11-24T20:45:36.891Z,97218.41
2023-11-24T20:48:10.242Z,97217.31
2023-11-24T20:50:41.364Z,97213.84
2023-11-24T20:53:12.936Z,97210.88
2023-11-24T20:55:46.158Z,97217.44
2023-11-24T20:58:17.436Z,97214.00
2023-11-24T21:00:48.109Z,97219.50
2023-11-24T21:03:18.729Z,97210.34
2023-11-24T21:05:49.414Z,97218.69
2023-11-24T21:08:19.982Z,97216.78
2023-11-24T21:10:54.064Z,97215.34
2023-11-24T21:13:25.395Z,97214.56
2023-11-24T21:15:56.057Z,97207.34
2023-11-24T21:18:28.522Z,97208.56
2023-11-24T21:20:59.274Z,97199.63
2023-11-24T21:23:29.819Z,97198.72
2023-11-24T21:26:04.737Z,97191.63
2023-11-24T21:28:35.369Z,97203.88
2023-11-24T21:31:07.355Z,97218.97
2023-11-24T21:33:39.038Z,97200.59
2023-11-24T21:36:11.268Z,97204.53
2023-11-24T21:38:41.890Z,97203.28
2023-11-24T21:41:15.420Z,97198.91
2023-11-24T21:43:46.051Z,97194.66
2023-11-24T21:46:22.585Z,97188.97
2023-11-24T21:48:53.458Z,97190.06
2023-11-24T21:51:24.027Z,97184.72
2023-11-24T21:53:54.544Z,97180.97
2023-11-24T21:56:31.530Z,97175.94
2023-11-24T21:59:02.201Z,97173.75
2023-11-24T22:01:33.124Z,97190.09
2023-11-24T22:04:04.497Z,97185.53
2023-11-24T22:06:37.040Z,97192.28
2023-11-24T22:09:08.688Z,97184.44
2023-11-24T22:11:41.821Z,97189.19
2023-11-24T22:14:12.394Z,97171.28
2023-11-24T22:16:43.266Z,97171.13
2023-11-24T22:19:14.234Z,97181.81
2023-11-24T22:21:44.873Z,97179.59
2023-11-24T22:24:15.552Z,97187.63
2023-11-24T22:26:48.978Z,97178.66
2023-11-24T22:29:19.508Z,97178.97
2023-11-24T22:31:50.248Z,97177.38
2023-11-24T22:34:20.831Z,97189.19
2023-11-24T22:36:51.405Z,97184.19
2023-11-24T22:39:22.262Z,97182.31
2023-11-24T22:41:55.684Z,97182.13
2023-11-24T22:44:27.159Z,97177.88
2023-11-24T22:46:58.301Z,97171.16
2023-11-24T22:49:29.102Z,97154.66
2023-11-24T22:52:00.258Z,97169.41
2023-11-24T22:54:30.847Z,97161.06
2023-11-24T22:57:04.506Z,97154.63
2023-11-24T22:59:35.088Z,97164.06
2023-11-24T23:02:06.009Z,97156.66
2023-11-24T23:04:36.893Z,97160.59
2023-11-24T23:07:08.382Z,97155.75
2023-11-24T23:09:39.799Z,97144.88
2023-11-24T23:12:13.753Z,97155.25
2023-11-24T23:14:44.386Z,97156.19
2023-11-24T23:17:15.175Z,97164.34
2023-11-24T23:19:46.082Z,97163.41
2023-11-24T23:22:26.944Z,97155.56
2023-11-24T23:25:02.174Z,97159.78
2023-11-24T23:27:36.258Z,97170.31
2023-11-24T23:30:09.248Z,97168.75
2023-11-24T23:32:39.852Z,97159.94
2023-11-24T23:35:13.099Z,97164.06
2023-11-24T23:37:46.232Z,97172.25
2023-11-24T23:40:21.032Z,97173.81
2023-11-24T23:42:54.255Z,97179.28
2023-11-24T23:45:26.392Z,97171.22
2023-11-24T23:47:57.017Z,97165.56
2023-11-24T23:50:31.003Z,97162.44
2023-11-24T23:53:01.973Z,97167.13
2023-11-24T23:55:32.880Z,97156.16
2023-11-24T23:58:06.080Z,97161.34
